Encinitas, California
Current Conditions -  °F | °C
As of 9:02 PM on Saturday 25 Oct 2014 (Local Time) from KCRQ Reporting Station
Few Clouds Few Clouds  
Wind Chill: 68°   Ceiling: Unl
Heat Index: 68°   Visibility: 10mi
Dew Point: 62°   Wind: 0mph
Humidity: 81%   Direction: NA
Pressure: 30.01"   Gusts: NA
Location:  33.05°N, 117.29°W
Report Text: KCRQ 260402Z AUTO 00000KT 10SM FEW016 20/17 A3001 RMK AO2 T02000167 TSNO
Loading
Personal Weather Stations






























Interactive Weather Map
Tropical Storm Tracking
New forecast layout! Learn more

10-Day Weather Forecast

Advertisements
Track Severe Weather on mobile